createdAt,value
2024-05-09T00:01:01.420Z,7.8
2024-05-09T00:02:01.690Z,7.8
2024-05-09T00:03:01.563Z,7.8
2024-05-09T00:04:02.031Z,7.8
2024-05-09T00:05:02.469Z,7.8
2024-05-09T00:06:03.201Z,7.8
2024-05-09T00:08:02.194Z,7.7
2024-05-09T00:10:01.252Z,7.7
2024-05-09T00:11:02.223Z,7.7
2024-05-09T00:12:02.579Z,7.7
2024-05-09T00:13:01.113Z,7.7
2024-05-09T00:14:01.650Z,7.7
2024-05-09T00:16:01.271Z,7.7
2024-05-09T00:17:01.568Z,7.7
2024-05-09T00:18:05.937Z,7.6
2024-05-09T00:20:01.840Z,7.6
2024-05-09T00:21:02.625Z,7.6
2024-05-09T00:22:01.091Z,7.6
2024-05-09T00:23:01.697Z,7.6
2024-05-09T00:25:01.243Z,7.6
2024-05-09T00:26:02.000Z,7.6
2024-05-09T00:28:01.559Z,7.6
2024-05-09T00:29:01.461Z,7.6
2024-05-09T00:31:01.242Z,7.5
2024-05-09T00:32:02.400Z,7.5
2024-05-09T00:33:04.344Z,7.5
2024-05-09T00:34:02.615Z,7.4
2024-05-09T00:36:01.285Z,7.4
2024-05-09T00:37:01.202Z,7.4
2024-05-09T00:38:03.968Z,7.4
2024-05-09T00:40:01.263Z,7.4
2024-05-09T00:41:01.756Z,7.3
2024-05-09T00:42:01.133Z,7.3
2024-05-09T00:43:01.240Z,7.3
2024-05-09T00:44:01.583Z,7.3
2024-05-09T00:46:01.217Z,7.2
2024-05-09T00:47:01.464Z,7.2
2024-05-09T00:48:04.546Z,7.2
2024-05-09T00:50:01.707Z,7.2
2024-05-09T00:51:02.032Z,7.2
2024-05-09T00:52:01.131Z,7.2
2024-05-09T00:53:01.748Z,7.1
2024-05-09T00:55:01.221Z,7.1
2024-05-09T00:56:01.564Z,7.1
2024-05-09T00:57:01.162Z,7.1
2024-05-09T00:58:01.299Z,7.1
2024-05-09T00:59:01.649Z,7
2024-05-09T01:00:01.188Z,7
2024-05-09T01:01:01.817Z,7
2024-05-09T01:02:01.846Z,7
2024-05-09T01:03:03.666Z,7
2024-05-09T01:04:01.498Z,6.9
2024-05-09T01:05:02.575Z,6.9
2024-05-09T01:07:01.370Z,6.9
2024-05-09T01:08:02.086Z,6.9
2024-05-09T01:09:01.244Z,6.9
2024-05-09T01:10:01.289Z,6.9
2024-05-09T01:11:02.381Z,6.9
2024-05-09T01:12:02.713Z,6.9
2024-05-09T01:13:01.251Z,6.9
2024-05-09T01:14:01.725Z,6.9
2024-05-09T01:15:01.260Z,6.9
2024-05-09T01:16:01.168Z,6.8
2024-05-09T01:17:01.511Z,6.8
2024-05-09T01:18:03.799Z,6.8
2024-05-09T01:19:01.392Z,6.8
2024-05-09T01:20:01.809Z,6.8
2024-05-09T01:21:01.727Z,6.8
2024-05-09T01:23:01.538Z,6.8
2024-05-09T01:25:01.214Z,6.7
2024-05-09T01:26:01.914Z,6.7
2024-05-09T01:28:01.437Z,6.7
2024-05-09T01:29:02.067Z,6.7
2024-05-09T01:30:01.179Z,6.7
2024-05-09T01:31:01.278Z,6.6
2024-05-09T01:32:02.425Z,6.6
2024-05-09T01:33:03.631Z,6.6
2024-05-09T01:35:01.961Z,6.6
2024-05-09T01:36:01.165Z,6.6
2024-05-09T01:37:01.210Z,6.6
2024-05-09T01:38:02.198Z,6.7
2024-05-09T01:40:01.310Z,6.6
2024-05-09T01:41:01.727Z,6.7
2024-05-09T01:43:01.202Z,6.7
2024-05-09T01:44:01.709Z,6.7
2024-05-09T01:45:01.364Z,6.7
2024-05-09T01:47:01.676Z,6.7
2024-05-09T01:48:05.745Z,6.6
2024-05-09T01:49:01.278Z,6.6
2024-05-09T01:50:02.715Z,6.6
2024-05-09T01:51:01.876Z,6.6
2024-05-09T01:53:01.808Z,6.6
2024-05-09T01:55:07.676Z,6.6
2024-05-09T01:57:01.241Z,6.6
2024-05-09T01:58:01.383Z,6.6
2024-05-09T01:59:01.656Z,6.6
2024-05-09T02:00:01.299Z,6.6
2024-05-09T02:01:01.575Z,6.6
2024-05-09T02:02:03.324Z,6.6
2024-05-09T02:03:03.612Z,6.6
2024-05-09T02:05:02.428Z,6.6
2024-05-09T02:06:01.601Z,6.6
2024-05-09T02:08:01.603Z,6.5
2024-05-09T02:10:01.235Z,6.5
2024-05-09T02:11:02.647Z,6.4
2024-05-09T02:12:03.061Z,6.4
2024-05-09T02:14:01.945Z,6.4
2024-05-09T02:15:01.172Z,6.4
2024-05-09T02:16:01.252Z,6.4
2024-05-09T02:17:01.656Z,6.4
2024-05-09T02:18:03.201Z,6.3
2024-05-09T02:20:01.882Z,6.3
2024-05-09T02:21:02.713Z,6.3
2024-05-09T02:23:01.638Z,6.2
2024-05-09T02:24:01.178Z,6.2
2024-05-09T02:25:01.265Z,6.2
2024-05-09T02:26:01.902Z,6.2
2024-05-09T02:27:01.180Z,6.2
2024-05-09T02:28:01.592Z,6.2
2024-05-09T02:29:01.649Z,6.2
2024-05-09T02:30:01.284Z,6.1
2024-05-09T02:32:02.244Z,6.1
2024-05-09T02:33:02.838Z,6.1
2024-05-09T02:34:03.025Z,6.1
2024-05-09T02:35:01.412Z,6.1
2024-05-09T02:37:01.277Z,6.1
2024-05-09T02:38:02.755Z,6
2024-05-09T02:40:01.268Z,6
2024-05-09T02:41:01.626Z,5.9
2024-05-09T02:42:01.182Z,5.9
2024-05-09T02:43:01.358Z,5.9
2024-05-09T02:44:01.755Z,5.9
2024-05-09T02:46:01.225Z,5.8
2024-05-09T02:47:01.578Z,5.8
2024-05-09T02:48:05.122Z,5.8
2024-05-09T02:50:01.738Z,5.8
2024-05-09T02:51:01.585Z,5.8
2024-05-09T02:52:01.153Z,5.8
2024-05-09T02:53:01.938Z,5.8
2024-05-09T02:54:01.146Z,5.8
2024-05-09T02:55:01.228Z,5.8
2024-05-09T02:56:01.729Z,5.8
2024-05-09T02:58:01.323Z,5.8
2024-05-09T02:59:01.593Z,5.8
2024-05-09T03:00:01.378Z,5.8
2024-05-09T03:01:01.730Z,5.8
2024-05-09T03:02:02.045Z,5.8
2024-05-09T03:03:03.052Z,5.8
2024-05-09T03:05:01.653Z,5.8
2024-05-09T03:06:01.249Z,5.8
2024-05-09T03:08:02.029Z,5.7
2024-05-09T03:10:01.242Z,5.7
2024-05-09T03:11:01.756Z,5.7
2024-05-09T03:12:02.412Z,5.7
2024-05-09T03:14:01.546Z,5.7
2024-05-09T03:16:01.175Z,5.7
2024-05-09T03:17:01.481Z,5.6
2024-05-09T03:18:04.642Z,5.6
2024-05-09T03:20:01.544Z,5.6
2024-05-09T03:21:01.900Z,5.6
2024-05-09T03:22:01.147Z,5.6
2024-05-09T03:23:01.685Z,5.6
2024-05-09T03:25:01.294Z,5.6
2024-05-09T03:26:01.964Z,5.6
2024-05-09T03:27:01.163Z,5.6
2024-05-09T03:28:01.619Z,5.6
2024-05-09T03:30:01.494Z,5.6
2024-05-09T03:31:01.102Z,5.6
2024-05-09T03:32:02.192Z,5.6
2024-05-09T03:33:02.896Z,5.6
2024-05-09T03:34:02.252Z,5.6
2024-05-09T03:37:01.329Z,5.6
2024-05-09T03:38:01.585Z,5.6
2024-05-09T03:39:01.234Z,5.6
2024-05-09T03:40:01.240Z,5.6
2024-05-09T03:41:01.615Z,5.6
2024-05-09T03:42:01.198Z,5.6
2024-05-09T03:43:01.295Z,5.6
2024-05-09T03:44:01.671Z,5.6
2024-05-09T03:45:01.258Z,5.6
2024-05-09T03:46:01.330Z,5.7
2024-05-09T03:47:01.530Z,5.7
2024-05-09T03:48:02.859Z,5.7
2024-05-09T03:50:01.798Z,5.7
2024-05-09T03:51:01.946Z,5.8
2024-05-09T03:53:02.859Z,5.8
2024-05-09T03:55:01.248Z,5.8
2024-05-09T03:56:01.996Z,5.8
2024-05-09T03:57:01.077Z,5.8
2024-05-09T03:58:01.449Z,5.8
2024-05-09T03:59:01.690Z,5.9
2024-05-09T04:01:01.884Z,5.9
2024-05-09T04:02:02.132Z,5.9
2024-05-09T04:03:04.499Z,5.9
2024-05-09T04:05:01.705Z,6
2024-05-09T04:07:01.264Z,6
2024-05-09T04:08:02.628Z,6.1
2024-05-09T04:10:01.381Z,6.1
2024-05-09T04:11:02.310Z,6.1
2024-05-09T04:12:02.644Z,6.1
2024-05-09T04:13:01.525Z,6.2
2024-05-09T04:14:01.618Z,6.2
2024-05-09T04:15:01.261Z,6.2
2024-05-09T04:16:01.283Z,6.2
2024-05-09T04:17:01.576Z,6.2
2024-05-09T04:18:04.921Z,6.3
2024-05-09T04:20:02.247Z,6.4
2024-05-09T04:21:01.251Z,6.4
2024-05-09T04:22:01.343Z,6.4
2024-05-09T04:23:01.597Z,6.4
2024-05-09T04:26:01.821Z,6.6
2024-05-09T04:28:01.487Z,6.6
2024-05-09T04:29:01.524Z,6.7
2024-05-09T04:31:01.165Z,6.8
2024-05-09T04:32:02.214Z,6.8
2024-05-09T04:33:02.545Z,6.9
2024-05-09T04:34:01.973Z,6.9
2024-05-09T04:35:01.556Z,7
2024-05-09T04:37:01.229Z,7.1
2024-05-09T04:38:02.042Z,7.2
2024-05-09T04:40:01.265Z,7.3
2024-05-09T04:41:01.523Z,7.4
2024-05-09T04:42:01.126Z,7.4
2024-05-09T04:43:01.349Z,7.5
2024-05-09T04:44:01.652Z,7.6
2024-05-09T04:45:01.240Z,7.7
2024-05-09T04:47:01.442Z,8.1
2024-05-09T04:48:05.210Z,8.6
2024-05-09T04:50:01.751Z,9.8
2024-05-09T04:52:01.262Z,10.9
2024-05-09T04:53:01.474Z,11.4
2024-05-09T04:54:01.318Z,11.9
2024-05-09T04:56:01.784Z,12.8
2024-05-09T04:57:01.300Z,13.2
2024-05-09T04:58:01.396Z,13.5
2024-05-09T04:59:01.530Z,13.9
2024-05-09T05:00:01.337Z,14.2
2024-05-09T05:01:01.463Z,14.6
2024-05-09T05:02:02.288Z,14.9
2024-05-09T05:03:02.247Z,15.2
2024-05-09T05:04:02.717Z,15.6
2024-05-09T05:05:02.260Z,15.9
2024-05-09T05:07:03.983Z,16.4
2024-05-09T05:09:01.231Z,17.1
2024-05-09T05:10:01.256Z,17.4
2024-05-09T05:11:02.172Z,17.7
2024-05-09T05:12:01.987Z,18
2024-05-09T05:13:01.109Z,18.2
2024-05-09T05:14:01.797Z,18.6
2024-05-09T05:15:01.108Z,18.8
2024-05-09T05:16:01.241Z,19.1
2024-05-09T05:17:01.511Z,19.3
2024-05-09T05:18:02.846Z,19.6
2024-05-09T05:20:03.483Z,20.1
2024-05-09T05:21:01.235Z,20.3
2024-05-09T05:22:01.315Z,20.5
2024-05-09T05:23:02.446Z,20.8
2024-05-09T05:25:01.211Z,20.8
2024-05-09T05:26:01.572Z,21.1
2024-05-09T05:27:01.209Z,21.5
2024-05-09T05:28:01.228Z,21.5
2024-05-09T05:29:01.707Z,21.9
2024-05-09T05:30:01.255Z,22.2
2024-05-09T05:32:02.171Z,22.2
2024-05-09T05:33:03.343Z,22.7
2024-05-09T05:35:01.718Z,23.4
2024-05-09T05:37:01.208Z,23.9
2024-05-09T05:38:02.143Z,24.1
2024-05-09T05:40:01.249Z,24.3
2024-05-09T05:41:01.742Z,24.3
2024-05-09T05:42:01.188Z,24.4
2024-05-09T05:43:01.238Z,24.6
2024-05-09T05:44:01.542Z,24.6
2024-05-09T05:45:01.307Z,24.8
2024-05-09T05:46:01.221Z,25
2024-05-09T05:47:01.845Z,25.3
2024-05-09T05:48:03.292Z,25.6
2024-05-09T05:50:02.267Z,25.9
2024-05-09T05:51:06.002Z,26.2
2024-05-09T05:53:01.806Z,26.6
2024-05-09T05:54:01.142Z,26.8
2024-05-09T05:55:01.220Z,27
2024-05-09T05:56:02.022Z,27.2
2024-05-09T05:58:01.191Z,27.6
2024-05-09T05:59:01.487Z,27.8
2024-05-09T06:00:01.138Z,27.9
2024-05-09T06:01:01.774Z,28
2024-05-09T06:02:01.534Z,28.2
2024-05-09T06:03:02.382Z,28.3
2024-05-09T06:05:02.308Z,28.6
2024-05-09T06:08:02.275Z,28.9
2024-05-09T06:10:01.241Z,29.3
2024-05-09T06:11:02.227Z,29.4
2024-05-09T06:12:02.998Z,29.5
2024-05-09T06:14:01.626Z,29.7
2024-05-09T06:15:01.225Z,29.9
2024-05-09T06:16:01.357Z,30.1
2024-05-09T06:17:01.481Z,30.3
2024-05-09T06:18:03.733Z,30.5
2024-05-09T06:20:01.615Z,30.8
2024-05-09T06:21:01.813Z,30.8
2024-05-09T06:22:01.348Z,31
2024-05-09T06:23:01.584Z,31.2
2024-05-09T06:24:07.319Z,31.4
2024-05-09T06:26:01.872Z,31.8
2024-05-09T06:27:01.182Z,31.8
2024-05-09T06:28:01.824Z,31.8
2024-05-09T06:29:01.510Z,31.9
2024-05-09T06:30:01.251Z,32
2024-05-09T06:31:01.264Z,32.1
2024-05-09T06:32:02.419Z,32.2
2024-05-09T06:33:02.384Z,32.5
2024-05-09T06:34:02.697Z,32.7
2024-05-09T06:35:01.139Z,32.8
2024-05-09T06:36:01.273Z,32.9
2024-05-09T06:37:01.230Z,32.9
2024-05-09T06:38:03.187Z,32.9
2024-05-09T06:39:01.121Z,32.9
2024-05-09T06:40:01.191Z,32.8
2024-05-09T06:41:01.701Z,32.8
2024-05-09T06:42:01.202Z,32.8
2024-05-09T06:43:01.274Z,32.9
2024-05-09T06:44:01.718Z,32.9
2024-05-09T06:47:02.131Z,32.9
2024-05-09T06:48:02.963Z,32.9
2024-05-09T06:49:01.594Z,32.9
2024-05-09T06:50:01.843Z,32.8
2024-05-09T06:51:01.521Z,32.9
2024-05-09T06:53:01.763Z,32.9
2024-05-09T06:55:01.207Z,33.1
2024-05-09T06:56:01.527Z,33.1
2024-05-09T06:57:01.167Z,33.2
2024-05-09T06:58:01.424Z,33.2
2024-05-09T06:59:01.841Z,33.3
2024-05-09T07:00:01.793Z,33.4
2024-05-09T07:02:01.606Z,33.5
2024-05-09T07:03:07.960Z,33.4
2024-05-09T07:05:03.320Z,33.5
2024-05-09T07:07:01.241Z,33.4
2024-05-09T07:08:01.611Z,33.4
2024-05-09T07:09:01.230Z,33.5
2024-05-09T07:10:01.213Z,33.8
2024-05-09T07:11:02.082Z,33.9
2024-05-09T07:12:02.109Z,34
2024-05-09T07:13:01.215Z,34.1
2024-05-09T07:14:01.469Z,34.1
2024-05-09T07:15:01.146Z,34.1
2024-05-09T07:16:01.282Z,34.3
2024-05-09T07:17:02.447Z,34.4
2024-05-09T07:18:02.597Z,34.6
2024-05-09T07:19:02.253Z,34.6
2024-05-09T07:21:01.867Z,34.8
2024-05-09T07:22:01.188Z,34.8
2024-05-09T07:23:02.014Z,34.8
2024-05-09T07:24:01.282Z,34.9
2024-05-09T07:25:01.309Z,35
2024-05-09T07:26:01.695Z,35.1
2024-05-09T07:27:01.170Z,35.2
2024-05-09T07:28:01.243Z,35.2
2024-05-09T07:29:01.678Z,35.2
2024-05-09T07:31:01.296Z,35.3
2024-05-09T07:32:01.681Z,35.4
2024-05-09T07:33:05.094Z,35.4
2024-05-09T07:35:01.815Z,35.4
2024-05-09T07:37:01.214Z,35.2
2024-05-09T07:38:01.745Z,35.1
2024-05-09T07:40:01.334Z,35.2
2024-05-09T07:41:01.623Z,35.2
2024-05-09T07:43:01.181Z,35.4
2024-05-09T07:44:01.684Z,35.5
2024-05-09T07:55:03.217Z,36.9
2024-05-09T07:56:02.028Z,37.1
2024-05-09T07:57:02.648Z,37.2
2024-05-09T07:58:01.257Z,37.4
2024-05-09T07:59:01.269Z,37.7
2024-05-09T08:00:01.248Z,37.9
2024-05-09T08:01:02.259Z,38
2024-05-09T08:02:03.026Z,38.2
2024-05-09T08:03:01.431Z,38.4
2024-05-09T08:04:02.220Z,38.6
2024-05-09T08:05:02.307Z,38.8
2024-05-09T08:06:01.141Z,39
2024-05-09T08:07:01.509Z,39.1
2024-05-09T08:08:01.211Z,39.3
2024-05-09T08:09:22.215Z,39.4
2024-05-09T08:11:01.329Z,39.4
2024-05-09T08:12:01.287Z,39.4
2024-05-09T08:13:01.806Z,39.2
2024-05-09T08:14:01.211Z,39.1
2024-05-09T08:15:01.352Z,39
2024-05-09T08:16:02.229Z,39
2024-05-09T08:17:01.215Z,38.9
2024-05-09T08:18:02.968Z,38.9
2024-05-09T08:19:01.938Z,38.9
2024-05-09T08:20:11.362Z,38.9
2024-05-09T08:22:01.658Z,39.1
2024-05-09T08:23:01.204Z,39.1
2024-05-09T08:24:01.287Z,39.1
2024-05-09T08:25:01.651Z,39.1
2024-05-09T08:26:01.246Z,39.1
2024-05-09T08:27:01.320Z,39.2
2024-05-09T08:28:02.203Z,39.2
2024-05-09T08:30:01.958Z,39.4
2024-05-09T08:31:08.667Z,39.4
2024-05-09T08:33:02.077Z,39.7
2024-05-09T08:34:02.801Z,39.8
2024-05-09T08:35:01.225Z,39.7
2024-05-09T08:36:01.299Z,39.8
2024-05-09T08:37:40.654Z,39.8
2024-05-09T08:39:01.170Z,40.1
2024-05-09T08:40:01.877Z,40.1
2024-05-09T08:41:01.108Z,40.2
2024-05-09T08:42:01.224Z,40.4
2024-05-09T08:43:01.674Z,40.6
2024-05-09T08:45:01.315Z,40.9
2024-05-09T08:46:01.816Z,41.1
2024-05-09T08:47:01.074Z,41
2024-05-09T08:48:02.480Z,40.9
2024-05-09T08:49:02.798Z,40.9
2024-05-09T08:50:02.217Z,40.8
2024-05-09T08:51:01.195Z,40.8
2024-05-09T08:52:01.723Z,40.8
2024-05-09T08:53:01.282Z,40.9
2024-05-09T08:54:01.143Z,41.1
2024-05-09T08:55:01.838Z,41.2
2024-05-09T08:56:01.156Z,41.3
2024-05-09T08:57:01.215Z,41.4
2024-05-09T08:58:01.765Z,41.6
2024-05-09T08:59:01.242Z,41.7
2024-05-09T09:00:01.437Z,41.8
2024-05-09T09:01:02.242Z,41.7
2024-05-09T09:02:01.782Z,41.8
2024-05-09T09:03:01.788Z,41.9
2024-05-09T09:04:02.502Z,41.8
2024-05-09T09:05:01.871Z,41.7
2024-05-09T09:07:04.857Z,41.5
2024-05-09T09:09:01.200Z,41.4
2024-05-09T09:10:01.800Z,41.4
2024-05-09T09:12:01.835Z,41.2
2024-05-09T09:13:01.712Z,41.2
2024-05-09T09:15:01.304Z,41.6
2024-05-09T09:16:02.207Z,41.8
2024-05-09T09:17:01.094Z,42
2024-05-09T09:18:03.130Z,42.1
2024-05-09T09:20:02.515Z,42.1
2024-05-09T09:21:01.129Z,42
2024-05-09T09:22:01.730Z,41.8
2024-05-09T09:23:01.124Z,41.8
2024-05-09T09:24:01.303Z,41.8
2024-05-09T09:25:01.657Z,41.8
2024-05-09T09:26:01.905Z,41.8
2024-05-09T09:27:01.182Z,41.8
2024-05-09T09:28:01.798Z,41.9
2024-05-09T09:29:01.122Z,42
2024-05-09T09:30:01.521Z,42.2
2024-05-09T09:31:01.619Z,42.2
2024-05-09T09:32:01.215Z,42.3
2024-05-09T09:33:02.252Z,42.4
2024-05-09T09:34:02.634Z,42.5
2024-05-09T09:35:02.066Z,42.6
2024-05-09T09:37:01.607Z,42.8
2024-05-09T09:38:01.263Z,42.9
2024-05-09T09:40:01.478Z,43.3
2024-05-09T09:41:02.602Z,43.5
2024-05-09T09:43:01.787Z,43.8
2024-05-09T09:45:06.867Z,44.1
2024-05-09T09:47:01.463Z,44.3
2024-05-09T09:48:01.935Z,44.3
2024-05-09T09:49:02.269Z,44.2
2024-05-09T09:51:01.203Z,44.3
2024-05-09T09:52:01.627Z,44.3
2024-05-09T09:53:01.349Z,44.1
2024-05-09T09:55:01.697Z,43.8
2024-05-09T09:56:01.123Z,43.6
2024-05-09T09:57:01.826Z,43.6
2024-05-09T09:58:01.738Z,43.5
2024-05-09T10:00:01.289Z,43.2
2024-05-09T10:01:02.592Z,43.2
2024-05-09T10:02:02.758Z,43.2
2024-05-09T10:03:03.135Z,43.4
2024-05-09T10:04:01.483Z,43.5
2024-05-09T10:05:02.616Z,43.6
2024-05-09T10:06:01.508Z,43.5
2024-05-09T10:07:01.598Z,43.5
2024-05-09T10:08:01.204Z,43.4
2024-05-09T10:09:01.229Z,43.4
2024-05-09T10:10:01.660Z,43.6
2024-05-09T10:11:01.772Z,43.8
2024-05-09T10:12:02.190Z,43.9
2024-05-09T10:13:02.267Z,44.1
2024-05-09T10:15:01.243Z,44
2024-05-09T10:16:01.928Z,43.8
2024-05-09T10:18:01.982Z,43.3
2024-05-09T10:19:02.305Z,43.2
2024-05-09T10:20:01.300Z,43.1
2024-05-09T10:22:01.689Z,43.2
2024-05-09T10:24:01.330Z,43.6
2024-05-09T10:25:06.518Z,43.8
2024-05-09T10:27:01.187Z,43.9
2024-05-09T10:28:01.634Z,43.9
2024-05-09T10:29:01.129Z,43.9
2024-05-09T10:30:01.324Z,43.8
2024-05-09T10:31:01.681Z,43.8
2024-05-09T10:32:01.107Z,43.8
2024-05-09T10:33:02.070Z,43.8
2024-05-09T10:34:03.783Z,43.8
2024-05-09T10:37:06.444Z,43.4
2024-05-09T10:39:01.576Z,43.1
2024-05-09T10:40:01.696Z,43.1
2024-05-09T10:41:01.228Z,43.2
2024-05-09T10:42:01.264Z,43.3
2024-05-09T10:43:07.522Z,43.4
2024-05-09T10:45:01.205Z,43.6
2024-05-09T10:46:01.927Z,43.7
2024-05-09T10:47:01.306Z,43.8
2024-05-09T10:48:02.830Z,43.9
2024-05-09T10:49:09.588Z,44
2024-05-09T10:51:01.247Z,44.2
2024-05-09T10:52:01.591Z,44.2
2024-05-09T10:53:01.251Z,44.2
2024-05-09T10:55:07.065Z,44.4
2024-05-09T10:57:01.258Z,44.4
2024-05-09T10:58:01.685Z,44.4
2024-05-09T11:00:01.474Z,44.4
2024-05-09T11:01:09.147Z,44.4
2024-05-09T11:03:01.922Z,44.4
2024-05-09T11:04:03.156Z,44.4
2024-05-09T11:07:06.630Z,44.4
2024-05-09T11:09:01.184Z,44.1
2024-05-09T11:10:01.797Z,44
2024-05-09T11:12:01.816Z,44.2
2024-05-09T11:13:01.624Z,44.4
2024-05-09T11:15:01.268Z,44.6
2024-05-09T11:16:02.124Z,44.6
2024-05-09T11:18:02.174Z,44.6
2024-05-09T11:19:02.954Z,44.7
2024-05-09T11:20:01.450Z,44.6
2024-05-09T11:22:01.625Z,44.8
2024-05-09T11:23:01.195Z,44.8
2024-05-09T11:24:01.265Z,44.9
2024-05-09T11:25:01.623Z,45.1
2024-05-09T11:26:01.260Z,45.1
2024-05-09T11:28:02.047Z,44.9
2024-05-09T11:30:01.221Z,44.2
2024-05-09T11:31:01.704Z,43.9
2024-05-09T11:32:01.538Z,43.9
2024-05-09T11:33:02.375Z,44.1
2024-05-09T11:34:01.248Z,44.2
2024-05-09T11:35:01.250Z,44.3
2024-05-09T11:36:01.208Z,44.3
2024-05-09T11:37:01.632Z,44.3
2024-05-09T11:39:01.254Z,44.6
2024-05-09T11:40:01.836Z,44.6
2024-05-09T11:41:01.127Z,44.8
2024-05-09T11:42:01.291Z,44.8
2024-05-09T11:43:02.040Z,44.9
2024-05-09T11:44:01.114Z,44.9
2024-05-09T11:45:01.271Z,45.1
2024-05-09T11:46:02.142Z,45.4
2024-05-09T11:48:02.846Z,45.5
2024-05-09T11:49:03.069Z,45.6
2024-05-09T11:50:01.767Z,44.6
2024-05-09T11:52:02.050Z,43.6
2024-05-09T11:54:01.257Z,43.9
2024-05-09T11:55:01.896Z,43.9
2024-05-09T11:56:01.150Z,44
2024-05-09T11:57:01.215Z,44.1
2024-05-09T11:58:01.768Z,44.3
2024-05-09T12:00:01.359Z,44.8
2024-05-09T12:01:02.133Z,45.1
2024-05-09T12:02:02.488Z,45.2
2024-05-09T12:03:01.468Z,45.2
2024-05-09T12:04:04.145Z,45.3
2024-05-09T12:06:02.703Z,45.3
2024-05-09T12:08:01.288Z,45.2
2024-05-09T12:09:01.175Z,45.6
2024-05-09T12:10:01.873Z,45.8
2024-05-09T12:11:02.763Z,46
2024-05-09T12:13:01.817Z,46.3
2024-05-09T12:14:01.194Z,46.6
2024-05-09T12:15:01.322Z,46.8
2024-05-09T12:16:02.295Z,46.8
2024-05-09T12:18:07.404Z,46.4
2024-05-09T12:20:01.301Z,46.3
2024-05-09T12:21:01.312Z,46.4
2024-05-09T12:22:01.591Z,46.6
2024-05-09T12:24:01.340Z,47.2
2024-05-09T12:25:01.637Z,47.4
2024-05-09T12:26:01.696Z,47.6
2024-05-09T12:28:03.084Z,46.7
2024-05-09T12:29:01.120Z,46.8
2024-05-09T12:30:01.219Z,47.1
2024-05-09T12:31:01.686Z,47.1
2024-05-09T12:32:01.914Z,47
2024-05-09T12:33:02.167Z,46.9
2024-05-09T12:34:01.860Z,46.8
2024-05-09T12:36:01.826Z,46.6
2024-05-09T12:38:01.443Z,46.9
2024-05-09T12:39:01.096Z,47.2
2024-05-09T12:40:01.707Z,47.3
2024-05-09T12:41:01.764Z,47.4
2024-05-09T12:43:01.937Z,47.1
2024-05-09T12:45:01.256Z,46.7
2024-05-09T12:46:02.450Z,46.6
2024-05-09T12:48:02.677Z,46
2024-05-09T12:49:03.594Z,45.8
2024-05-09T12:51:01.234Z,43.2
2024-05-09T12:52:01.628Z,43.2
2024-05-09T12:53:05.157Z,43.9
2024-05-09T12:55:02.122Z,44.8
2024-05-09T12:56:10.269Z,45.1
2024-05-09T12:58:01.791Z,43
2024-05-09T12:59:01.152Z,43.2
2024-05-09T13:00:01.265Z,43.8
2024-05-09T13:01:02.076Z,44.1
2024-05-09T13:02:03.495Z,44.4
2024-05-09T13:03:02.346Z,44.6
2024-05-09T13:04:03.114Z,44.8
2024-05-09T13:05:01.579Z,44.9
2024-05-09T13:07:07.330Z,45.1
2024-05-09T13:09:01.273Z,44.9
2024-05-09T13:10:01.921Z,44.9
2024-05-09T13:11:01.141Z,44.9
2024-05-09T13:12:01.756Z,45.1
2024-05-09T13:13:03.516Z,45.2
2024-05-09T13:14:01.086Z,45.2
2024-05-09T13:15:01.265Z,45.2
2024-05-09T13:16:01.864Z,45.4
2024-05-09T13:17:01.651Z,45.6
2024-05-09T13:18:05.371Z,45.8
2024-05-09T13:20:01.243Z,46.2
2024-05-09T13:21:01.266Z,46.3
2024-05-09T13:22:01.635Z,46.5
2024-05-09T13:23:01.243Z,46.6
2024-05-09T13:24:01.488Z,46.4
2024-05-09T13:25:01.465Z,46.2
2024-05-09T13:26:01.267Z,46.2
2024-05-09T13:27:01.202Z,46.2
2024-05-09T13:28:02.401Z,46.1
2024-05-09T13:29:01.162Z,46.1
2024-05-09T13:30:01.371Z,46.2
2024-05-09T13:31:01.663Z,46.4
2024-05-09T13:32:01.749Z,46.5
2024-05-09T13:33:01.878Z,46.7
2024-05-09T13:34:02.758Z,46.8
2024-05-09T13:36:01.222Z,47
2024-05-09T13:37:01.567Z,47.1
2024-05-09T13:39:01.265Z,47.1
2024-05-09T13:40:02.076Z,47.1
2024-05-09T13:41:01.389Z,47.1
2024-05-09T13:43:02.435Z,46.9
2024-05-09T13:44:01.153Z,46.8
2024-05-09T13:45:01.271Z,46.6
2024-05-09T13:46:01.408Z,46.3
2024-05-09T13:47:01.644Z,46
2024-05-09T13:48:03.300Z,45.6
2024-05-09T13:49:01.402Z,45.2
2024-05-09T13:50:01.302Z,44.9
2024-05-09T13:52:02.277Z,44.7
2024-05-09T13:54:01.267Z,44.6
2024-05-09T13:55:01.523Z,44.6
2024-05-09T13:56:01.166Z,44.7
2024-05-09T13:57:01.229Z,44.6
2024-05-09T13:58:02.166Z,44.4
2024-05-09T14:00:01.479Z,43.7
2024-05-09T14:01:02.520Z,43.6
2024-05-09T14:02:01.904Z,43.6
2024-05-09T14:03:02.582Z,43.5
2024-05-09T14:04:03.069Z,43.4
2024-05-09T14:05:01.953Z,43.5
2024-05-09T14:07:01.946Z,43.7
2024-05-09T14:10:01.942Z,43.9
2024-05-09T14:11:02.282Z,43.9
2024-05-09T14:13:03.179Z,43.8
2024-05-09T14:15:01.266Z,43.8
2024-05-09T14:16:02.389Z,43.8
2024-05-09T14:17:01.543Z,43.8
2024-05-09T14:18:01.560Z,43.7
2024-05-09T14:19:01.931Z,43.5
2024-05-09T14:21:01.468Z,43.2
2024-05-09T14:22:01.397Z,43.2
2024-05-09T14:23:02.066Z,43.1
2024-05-09T14:24:01.181Z,43.1
2024-05-09T14:25:01.699Z,42.9
2024-05-09T14:27:01.183Z,42.4
2024-05-09T14:28:02.034Z,42.2
2024-05-09T14:30:01.392Z,41.6
2024-05-09T14:31:01.918Z,41.3
2024-05-09T14:33:02.776Z,41
2024-05-09T14:34:03.158Z,41.1
2024-05-09T14:36:01.331Z,41.4
2024-05-09T14:37:01.833Z,41.3
2024-05-09T14:38:01.167Z,41.3
2024-05-09T14:39:01.233Z,41.3
2024-05-09T14:40:02.098Z,41.4
2024-05-09T14:41:01.593Z,41.5
2024-05-09T14:42:01.387Z,41.6
2024-05-09T14:43:04.745Z,41.6
2024-05-09T14:45:01.231Z,41.6
2024-05-09T14:46:01.494Z,41.5
2024-05-09T14:47:01.578Z,41.6
2024-05-09T14:48:03.127Z,41.6
2024-05-09T14:50:01.211Z,41.6
2024-05-09T14:51:01.319Z,41.4
2024-05-09T14:52:01.723Z,41.4
2024-05-09T14:54:01.296Z,41.2
2024-05-09T14:55:02.585Z,41.2
2024-05-09T14:57:01.257Z,41.5
2024-05-09T14:58:01.731Z,41.6
2024-05-09T15:00:01.327Z,41.9
2024-05-09T15:01:02.291Z,42.1
2024-05-09T15:02:02.489Z,42.2
2024-05-09T15:03:03.869Z,42.2
2024-05-09T15:05:02.821Z,42.2
2024-05-09T15:07:01.628Z,41.4
2024-05-09T15:08:01.178Z,41
2024-05-09T15:09:01.270Z,40.6
2024-05-09T15:10:01.740Z,40.2
2024-05-09T15:11:01.974Z,39.9
2024-05-09T15:12:01.164Z,39.8
2024-05-09T15:13:02.378Z,39.8
2024-05-09T15:15:01.394Z,40
2024-05-09T15:16:01.708Z,40.1
2024-05-09T15:18:02.444Z,40.1
2024-05-09T15:19:02.117Z,40.1
2024-05-09T15:20:02.901Z,40.1
2024-05-09T15:21:01.973Z,40.1
2024-05-09T15:23:01.373Z,39.5
2024-05-09T15:24:01.404Z,39.2
2024-05-09T15:25:01.818Z,39
2024-05-09T15:27:01.226Z,38.6
2024-05-09T15:28:02.958Z,38.5
2024-05-09T15:29:01.087Z,38.6
2024-05-09T15:30:01.262Z,37.8
2024-05-09T15:31:01.540Z,37.3
2024-05-09T15:32:01.519Z,37.5
2024-05-09T15:33:02.872Z,37.6
2024-05-09T15:35:01.262Z,37.3
2024-05-09T15:36:01.219Z,37.2
2024-05-09T15:37:01.744Z,37.5
2024-05-09T15:38:01.208Z,37.6
2024-05-09T15:39:01.262Z,37.8
2024-05-09T15:40:01.792Z,37.7
2024-05-09T15:41:01.622Z,37.6
2024-05-09T15:42:01.218Z,37.5
2024-05-09T15:43:01.893Z,37.2
2024-05-09T15:45:01.257Z,36.7
2024-05-09T15:46:02.126Z,36.6
2024-05-09T15:48:02.685Z,34.8
2024-05-09T15:49:03.191Z,34
2024-05-09T15:51:02.202Z,33.1
2024-05-09T15:53:01.283Z,34
2024-05-09T15:54:01.292Z,34.3
2024-05-09T15:55:01.571Z,34.6
2024-05-09T15:56:01.226Z,35
2024-05-09T15:57:01.256Z,35.4
2024-05-09T15:58:01.970Z,35.8
2024-05-09T15:59:01.193Z,35.8
2024-05-09T16:00:01.458Z,35.5
2024-05-09T16:01:02.484Z,35.4
2024-05-09T16:03:01.784Z,36.1
2024-05-09T16:04:02.890Z,36.3
2024-05-09T16:05:01.729Z,36.3
2024-05-09T16:06:01.515Z,36.2
2024-05-09T16:07:01.538Z,36.1
2024-05-09T16:08:01.322Z,35.8
2024-05-09T16:09:01.329Z,35.4
2024-05-09T16:10:01.990Z,35.2
2024-05-09T16:11:02.770Z,35.2
2024-05-09T16:13:04.480Z,35
2024-05-09T16:15:01.205Z,34.2
2024-05-09T16:16:02.074Z,33.4
2024-05-09T16:17:02.063Z,32.6
2024-05-09T16:18:02.475Z,31.7
2024-05-09T16:19:01.630Z,31
2024-05-09T16:20:01.368Z,30.5
2024-05-09T16:22:01.888Z,29.7
2024-05-09T16:24:01.294Z,29
2024-05-09T16:25:01.451Z,28.8
2024-05-09T16:26:01.253Z,28.5
2024-05-09T16:27:01.495Z,28.3
2024-05-09T16:28:05.866Z,28.1
2024-05-09T16:29:01.104Z,27.9
2024-05-09T16:30:01.223Z,27.8
2024-05-09T16:31:01.703Z,27.6
2024-05-09T16:32:01.675Z,27.4
2024-05-09T16:33:03.475Z,27.3
2024-05-09T16:35:01.773Z,27.1
2024-05-09T16:37:01.766Z,26.9
2024-05-09T16:38:01.215Z,26.9
2024-05-09T16:40:01.818Z,26.7
2024-05-09T16:41:01.493Z,26.6
2024-05-09T16:42:01.222Z,26.6
2024-05-09T16:43:01.668Z,26.5
2024-05-09T16:44:01.157Z,26.4
2024-05-09T16:45:01.427Z,26.4
2024-05-09T16:46:01.510Z,26.4
2024-05-09T16:47:01.610Z,26.4
2024-05-09T16:48:05.148Z,26.3
2024-05-09T16:50:01.321Z,26.3
2024-05-09T16:51:01.235Z,26.2
2024-05-09T16:52:01.535Z,26.2
2024-05-09T16:53:01.568Z,26.2
2024-05-09T16:54:01.130Z,26.2
2024-05-09T16:55:02.164Z,26.2
2024-05-09T16:56:01.148Z,26.2
2024-05-09T16:57:01.225Z,26.2
2024-05-09T16:58:03.304Z,26.1
2024-05-09T16:59:01.185Z,26.1
2024-05-09T17:00:01.224Z,26.1